Time;durP1;ratioP1;P1;durP2;ratioP2;P2;SDS_P1;SDS_P2;PMS_P1;PMS_P2;Temp;Humidity;BMP_temperature;BMP_pressure;BME280_temperature;BME280_humidity;BME280_pressure;Samples;Min_cycle;Max_cycle;Signal;HPM_P1;HPM_P2
2022/10/19 00:00:50;;;;;;;5.15;2.55;;;;;;;11.81;100.00;150622.05;1608731;88;21017;-73
2022/10/19 00:03:17;;;;;;;3.67;2.60;;;;;;;11.81;100.00;150620.72;1632515;87;21104;-73
2022/10/19 00:05:44;;;;;;;4.05;2.55;;;;;;;11.80;100.00;150618.12;1632670;87;21086;-70
2022/10/19 00:08:12;;;;;;;5.67;2.77;;;;;;;11.80;100.00;150618.12;1613105;87;21080;-70
2022/10/19 00:10:40;;;;;;;3.42;2.77;;;;;;;11.83;100.00;150625.97;1636225;87;21274;-70
2022/10/19 00:13:08;;;;;;;4.10;3.10;;;;;;;11.81;100.00;150620.72;1625915;85;21126;-70
2022/10/19 00:15:39;;;;;;;5.17;2.80;;;;;;;11.80;100.00;150618.12;1626216;87;21107;-71
2022/10/19 00:18:08;;;;;;;4.05;2.98;;;;;;;11.77;100.00;150610.34;1656804;85;21063;-71
2022/10/19 00:20:35;;;;;;;4.40;2.80;;;;;;;11.73;100.00;150602.56;1634116;87;21138;-68
2022/10/19 00:23:02;;;;;;;10.78;2.90;;;;;;;11.74;100.00;150603.87;1627493;86;21228;-69
2022/10/19 00:25:29;;;;;;;5.12;2.95;;;;;;;11.70;100.00;150594.78;1681730;84;21030;-68
2022/10/19 00:27:56;;;;;;;7.80;3.30;;;;;;;11.68;100.00;150589.58;1687689;85;21060;-69
2022/10/19 00:30:22;;;;;;;5.35;3.77;;;;;;;11.63;100.00;150576.61;1631907;86;21279;-69
2022/10/19 00:32:49;;;;;;;6.65;4.22;;;;;;;11.55;100.00;150557.12;1680301;84;21044;-68
2022/10/19 00:35:16;;;;;;;5.62;4.10;;;;;;;11.44;100.00;150529.84;1675429;84;21545;-68
2022/10/19 00:37:43;;;;;;;7.95;4.55;;;;;;;11.31;100.00;150496.06;1654049;86;21529;-68
2022/10/19 00:40:11;;;;;;;7.17;4.67;;;;;;;11.18;100.00;150463.63;1654477;86;21542;-67
2022/10/19 00:42:38;;;;;;;6.80;4.42;;;;;;;11.04;100.00;150429.84;1654145;85;21462;-68
2022/10/19 00:45:12;;;;;;;8.40;4.08;;;;;;;10.94;100.00;150402.58;1687209;84;21088;-68
2022/10/19 00:47:41;;;;;;;7.85;4.03;;;;;;;10.78;100.00;150363.69;1681492;84;21478;-69
2022/10/19 00:50:08;;;;;;;6.92;4.55;;;;;;;10.63;100.00;150324.73;1683199;83;21083;-68
2022/10/19 00:52:35;;;;;;;6.58;4.50;;;;;;;10.52;100.00;150298.80;1682279;84;21091;-68
2022/10/19 00:55:03;;;;;;;7.78;4.40;;;;;;;10.44;100.00;150278.02;1651454;84;21109;-68
2022/10/19 00:57:31;;;;;;;5.90;4.25;;;;;;;10.36;100.00;150257.22;1680497;84;21519;-63
2022/10/19 00:59:58;;;;;;;8.20;4.50;;;;;;;10.29;100.00;150241.66;1629229;87;21886;-63
2022/10/19 01:02:24;;;;;;;6.37;4.20;;;;;;;10.22;100.00;150222.19;1645680;87;21098;-63
2022/10/19 01:04:51;;;;;;;9.38;5.05;;;;;;;10.16;100.00;150209.19;1661040;84;21040;-63
2022/10/19 01:07:18;;;;;;;7.10;4.78;;;;;;;10.10;100.00;150192.36;1670729;85;21896;-61
2022/10/19 01:09:45;;;;;;;7.15;5.05;;;;;;;10.02;100.00;150174.17;1635632;87;21089;-62
2022/10/19 01:12:47;;;;;;;8.90;5.12;;;;;;;9.94;100.00;150152.11;1656558;85;22084;-62
2022/10/19 01:15:42;;;;;;;9.60;4.67;;;;;;;9.83;100.00;150124.87;1653922;84;21154;-63
2022/10/19 01:18:36;;;;;;;7.00;4.40;;;;;;;9.75;100.00;150106.73;1631671;87;21147;-62
2022/10/19 01:21:38;;;;;;;8.53;5.30;;;;;;;9.70;100.00;150092.45;1629711;86;21019;-62
2022/10/19 01:24:19;;;;;;;8.95;5.08;;;;;;;9.65;100.00;150080.81;1660210;86;21131;-63
2022/10/19 01:27:12;;;;;;;8.03;4.95;;;;;;;9.60;100.00;150067.81;1646126;87;21236;-62
2022/10/19 01:29:57;;;;;;;8.33;4.72;;;;;;;9.57;100.00;150060.03;1619913;88;21598;-61
2022/10/19 01:32:45;;;;;;;8.80;4.87;;;;;;;9.55;100.00;150054.86;1610659;87;21104;-61
2022/10/19 01:35:18;;;;;;;6.08;4.50;;;;;;;9.53;100.00;150049.67;1632319;87;21343;-62
2022/10/19 01:38:19;;;;;;;10.78;5.33;;;;;;;9.51;100.00;150044.48;1632576;87;21079;-63
2022/10/19 01:41:16;;;;;;;9.43;4.97;;;;;;;9.49;100.00;150039.31;1632417;87;21514;-61
2022/10/19 01:43:55;;;;;;;8.58;5.20;;;;;;;9.50;100.00;150041.91;1626000;87;21124;-62
2022/10/19 01:46:38;;;;;;;7.97;5.10;;;;;;;9.51;100.00;150044.48;1626065;87;21068;-62
2022/10/19 01:49:11;;;;;;;14.53;5.55;;;;;;;9.52;100.00;150047.09;1626389;87;21080;-62
2022/10/19 01:51:42;;;;;;;9.80;5.37;;;;;;;9.53;100.00;150049.67;1625970;87;21236;-62
2022/10/19 01:54:11;;;;;;;8.05;4.78;;;;;;;9.53;100.00;150049.67;1626087;87;21181;-63
2022/10/19 01:56:37;;;;;;;9.03;5.00;;;;;;;9.55;100.00;150054.86;1625843;87;21593;-63
2022/10/19 01:59:05;;;;;;;11.10;5.20;;;;;;;9.58;100.00;150063.95;1625727;87;21064;-62
2022/10/19 02:01:33;;;;;;;8.55;5.30;;;;;;;9.62;100.00;150073.05;1602729;87;21564;-63
2022/10/19 02:04:00;;;;;;;10.05;5.58;;;;;;;9.65;100.00;150079.50;1626582;87;20977;-61
2022/10/19 02:06:27;;;;;;;9.00;5.08;;;;;;;9.66;100.00;150082.09;1625906;87;21954;-61
2022/10/19 02:08:55;;;;;;;10.20;5.60;;;;;;;9.64;100.00;150078.22;1638032;86;21154;-63
2022/10/19 02:11:23;;;;;;;10.32;5.40;;;;;;;9.62;100.00;150073.05;1649963;86;21242;-62
2022/10/19 02:14:00;;;;;;;10.35;5.42;;;;;;;9.60;100.00;150069.12;1623663;86;21076;-62
2022/10/19 02:16:32;;;;;;;9.20;5.62;;;;;;;9.60;100.00;150069.12;1627732;87;21068;-62
2022/10/19 02:19:01;;;;;;;9.60;5.55;;;;;;;9.62;100.00;150071.72;1630091;87;22127;-62
2022/10/19 02:21:28;;;;;;;8.95;6.00;;;;;;;9.62;100.00;150071.72;1606827;87;21103;-62
2022/10/19 02:23:54;;;;;;;7.75;5.70;;;;;;;9.59;100.00;150066.53;1628810;88;21092;-63
2022/10/19 02:26:21;;;;;;;8.55;5.12;;;;;;;9.58;100.00;150063.95;1628626;87;21072;-63
2022/10/19 02:28:48;;;;;;;8.10;5.55;;;;;;;9.58;100.00;150062.62;1628792;87;21056;-63
2022/10/19 02:31:15;;;;;;;11.35;6.35;;;;;;;9.57;100.00;150060.03;1628969;86;21152;-62
2022/10/19 02:33:42;;;;;;;10.08;5.80;;;;;;;9.55;100.00;150054.86;1630745;87;21068;-63
2022/10/19 02:36:08;;;;;;;9.93;5.47;;;;;;;9.53;100.00;150049.67;1631089;87;21099;-62
2022/10/19 02:38:36;;;;;;;10.00;5.65;;;;;;;9.52;100.00;150047.09;1630542;87;21088;-62
2022/10/19 02:41:23;;;;;;;9.13;5.17;;;;;;;9.50;100.00;150043.17;1630756;87;21164;-62
2022/10/19 02:44:00;;;;;;;7.90;5.42;;;;;;;9.48;100.00;146601.22;1630797;87;21507;-61
2022/10/19 02:46:47;;;;;;;8.93;6.03;;;;;;;9.46;100.00;137723.75;1630974;86;21075;-62
2022/10/19 02:49:14;;;;;;;12.70;6.42;;;;;;;9.46;100.00;129079.94;1631126;87;20988;-62
2022/10/19 02:52:03;;;;;;;10.75;5.92;;;;;;;9.44;100.00;120454.09;1630728;87;21132;-62
2022/10/19 02:54:31;;;;;;;10.60;5.50;;;;;;;9.45;100.00;113229.42;1630843;86;21079;-64
2022/10/19 02:56:58;;;;;;;8.95;5.95;;;;;;;9.46;100.00;106705.59;1630903;86;21321;-62
2022/10/19 02:59:25;;;;;;;12.33;6.75;;;;;;;9.46;100.00;101904.90;1630703;87;21037;-62
2022/10/19 03:01:52;;;;;;;13.95;6.70;;;;;;;9.48;100.00;98139.27;1630613;87;22404;-62
2022/10/19 03:04:19;;;;;;;13.48;7.62;;;;;;;9.48;100.00;95915.00;1630374;86;21143;-63
2022/10/19 03:06:45;;;;;;;17.48;7.33;;;;;;;9.49;100.00;92839.20;1630514;87;21573;-62
2022/10/19 03:09:12;;;;;;;18.60;7.55;;;;;;;9.48;100.00;89763.67;1628169;87;21188;-62
2022/10/19 03:11:40;;;;;;;13.13;7.40;;;;;;;9.49;100.00;87204.28;1628539;87;21538;-62
2022/10/19 03:14:08;;;;;;;13.70;7.45;;;;;;;9.50;100.00;83795.11;1628481;88;21526;-63
2022/10/19 03:16:35;;;;;;;12.50;7.53;;;;;;;9.51;100.00;80900.09;1638262;85;21377;-63
2022/10/19 03:19:02;;;;;;;15.53;7.85;;;;;;;9.51;100.00;77495.58;1662674;85;21066;-61
2022/10/19 03:21:29;;;;;;;15.43;7.70;;;;;;;9.54;100.00;73928.37;1671892;84;21231;-62
2022/10/19 03:23:59;;;;;;;13.18;7.62;;;;;;;9.56;100.00;69853.91;1652495;85;21036;-63
2022/10/19 03:26:26;;;;;;;14.28;8.03;;;;;;;9.59;100.00;65615.62;1658391;85;21067;-61
2022/10/19 03:28:53;;;;;;;11.93;7.67;;;;;;;9.62;100.00;62906.87;1654564;85;21064;-63
2022/10/19 03:31:19;;;;;;;16.57;8.30;;;;;;;9.65;100.00;59710.92;1641354;85;21385;-62
2022/10/19 03:33:47;;;;;;;15.50;8.08;;;;;;;9.73;100.00;52596.95;1650391;85;21220;-62
2022/10/19 03:36:29;;;;;;;13.13;8.00;;;;;;;9.74;100.00;50908.64;1662463;85;21274;-62
2022/10/19 03:38:58;;;;;;;12.45;7.47;;;;;;;9.76;100.00;49559.20;1656287;85;21072;-62
2022/10/19 03:41:28;;;;;;;13.55;8.05;;;;;;;9.75;100.00;49389.93;1669549;85;21067;-62
2022/10/19 03:43:56;;;;;;;13.78;8.75;;;;;;;9.75;100.00;49558.74;1658475;85;21500;-62
2022/10/19 03:46:23;;;;;;;13.10;8.13;;;;;;;9.76;100.00;47027.86;1657488;85;21667;-62
2022/10/19 03:48:49;;;;;;;12.15;8.53;;;;;;;9.75;100.00;46015.43;1664372;84;21533;-63
2022/10/19 03:51:19;;;;;;;13.88;8.30;;;;;;;9.74;100.00;45340.11;1650181;85;21094;-63
2022/10/19 03:53:49;;;;;;;16.70;8.43;;;;;;;9.74;100.00;44497.20;1666095;85;21553;-62
2022/10/19 03:56:19;;;;;;;16.10;9.00;;;;;;;9.72;100.00;43484.39;1630397;85;21604;-63
2022/10/19 03:58:47;;;;;;;11.95;8.43;;;;;;;9.70;100.00;43314.32;1657615;85;21309;-63
2022/10/19 04:01:18;;;;;;;12.50;7.95;;;;;;;9.68;100.00;43480.83;1667104;85;21332;-62
2022/10/19 04:03:45;;;;;;;15.15;8.10;;;;;;;9.63;100.00;44319.79;1661972;84;21103;-62
2022/10/19 04:06:16;;;;;;;14.70;8.85;;;;;;;9.60;100.00;44822.95;1661325;85;21071;-62
2022/10/19 04:08:43;;;;;;;16.10;8.85;;;;;;;9.57;100.00;44651.98;1663082;84;22272;-64
2022/10/19 04:11:13;;;;;;;15.00;8.78;;;;;;;9.54;100.00;44144.05;1674643;84;21276;-62
2022/10/19 04:13:40;;;;;;;15.00;8.55;;;;;;;9.51;100.00;43805.11;1661705;85;21147;-61
2022/10/19 04:16:08;;;;;;;21.77;9.13;;;;;;;9.44;100.00;45147.36;1670427;85;21111;-63
2022/10/19 04:18:35;;;;;;;14.35;8.45;;;;;;;9.39;100.00;46154.82;1655194;86;21107;-63
2022/10/19 04:21:04;;;;;;;15.65;8.53;;;;;;;9.35;100.00;46319.62;1662819;85;21024;-63
2022/10/19 04:23:34;;;;;;;12.37;8.38;;;;;;;9.31;100.00;45474.52;1644291;85;21068;-62
2022/10/19 04:26:05;;;;;;;16.50;8.10;;;;;;;9.28;100.00;44124.01;1652018;85;21570;-62
2022/10/19 04:28:33;;;;;;;29.12;8.25;;;;;;;9.26;100.00;43112.46;1652645;85;21266;-63
2022/10/19 04:31:06;;;;;;;55.17;8.43;;;;;;;9.23;100.00;42436.75;1636287;86;21096;-63
2022/10/19 04:33:33;;;;;;;28.90;6.90;;;;;;;9.20;100.00;42266.13;1648399;86;21131;-63
2022/10/19 04:36:06;;;;;;;33.33;7.10;;;;;;;9.16;100.00;41926.85;1643292;86;21244;-61
2022/10/19 04:38:32;;;;;;;61.70;7.78;;;;;;;9.14;100.00;41756.68;1643665;86;21491;-62
2022/10/19 04:41:05;;;;;;;21.45;6.30;;;;;;;9.09;100.00;42258.04;1645299;86;21080;-62
2022/10/19 04:43:32;;;;;;;14.55;6.47;;;;;;;9.04;100.00;42759.01;1656146;86;21056;-63
2022/10/19 04:46:09;;;;;;;29.48;7.75;;;;;;;8.99;100.00;43764.91;1654737;86;21087;-63
2022/10/19 04:48:37;;;;;;;18.65;7.47;;;;;;;8.92;100.00;45274.40;1645268;85;21190;-62
2022/10/19 04:51:04;;;;;;;19.87;7.97;;;;;;;8.93;100.00;42077.87;1659232;86;21106;-62
2022/10/19 04:53:31;;;;;;;17.20;9.63;;;;;;;9.05;100.00;35699.04;1638505;86;21052;-62
2022/10/19 04:55:58;;;;;;;17.42;8.20;;;;;;;9.23;100.00;30339.12;1643101;86;21084;-62
2022/10/19 04:58:25;;;;;;;15.68;7.58;;;;;;;9.36;100.00;25485.34;1648588;86;21104;-62
2022/10/19 05:00:52;;;;;;;14.30;7.80;;;;;;;9.50;100.00;23649.28;1643779;86;21546;-62
2022/10/19 05:03:19;;;;;;;18.07;7.83;;;;;;;9.60;100.00;22481.98;1635794;86;21059;-62
2022/10/19 05:05:47;;;;;;;11.78;8.00;;;;;;;9.70;100.00;22486.18;1654642;86;21104;-61
2022/10/19 05:08:14;;;;;;;11.57;7.20;;;;;;;9.78;100.00;22824.44;1660477;85;21136;-62
2022/10/19 05:10:41;;;;;;;15.93;7.83;;;;;;;9.90;100.00;21657.19;1638843;86;21115;-62
2022/10/19 05:13:09;;;;;;;11.78;8.15;;;;;;;10.04;100.00;20323.49;1651951;85;21099;-62
2022/10/19 05:15:36;;;;;;;13.60;7.33;;;;;;;10.15;100.00;20830.16;1657852;86;21544;-62
2022/10/19 05:18:03;;;;;;;13.50;7.17;;;;;;;10.25;100.00;21839.09;1633774;86;21076;-62
2022/10/19 05:20:30;;;;;;;11.85;7.08;;;;;;;10.32;100.00;23685.96;1629721;87;21148;-62
2022/10/19 05:22:57;;;;;;;11.78;7.15;;;;;;;10.43;100.00;23691.06;1651828;86;21545;-62
2022/10/19 05:25:24;;;;;;;9.90;6.80;;;;;;;10.52;100.00;27051.16;1652127;86;21228;-63
2022/10/19 05:27:52;;;;;;;10.10;6.53;;;;;;;10.56;100.00;31253.19;1655797;86;21032;-63
2022/10/19 05:30:20;;;;;;;10.63;5.87;;;;;;;10.66;100.00;32772.38;1644143;86;21112;-62
2022/10/19 05:32:48;;;;;;;10.63;5.80;;;;;;;10.74;100.00;35638.58;1641808;85;21083;-62
2022/10/19 05:35:15;;;;;;;9.80;6.00;;;;;;;10.79;100.00;41878.38;1649054;85;21167;-62
2022/10/19 05:37:43;;;;;;;8.28;6.17;;;;;;;10.84;100.00;46440.84;1632776;85;21489;-67
2022/10/19 05:40:11;;;;;;;10.63;6.37;;;;;;;10.89;100.00;51517.86;1634193;85;21095;-68
2022/10/19 05:42:38;;;;;;;9.03;5.53;;;;;;;10.95;100.00;60556.89;1636344;85;20945;-68
2022/10/19 05:45:07;;;;;;;7.78;5.35;;;;;;;10.97;100.00;67640.13;1637501;85;21136;-69
2022/10/19 05:47:34;;;;;;;10.20;5.33;;;;;;;11.04;100.00;68839.14;1610253;87;21084;-67
2022/10/19 05:50:07;;;;;;;8.43;6.08;;;;;;;11.13;100.00;74128.80;1628270;87;22709;-67
2022/10/19 05:52:34;;;;;;;11.55;5.50;;;;;;;11.11;100.00;94807.52;1634723;86;21083;-68
2022/10/19 05:55:00;;;;;;;8.80;5.40;;;;;;;11.13;100.00;106488.22;1619229;87;21078;-70
2022/10/19 05:57:27;;;;;;;7.33;5.50;;;;;;;11.14;100.00;121833.19;1639468;86;21318;-68
2022/10/19 05:59:57;;;;;;;8.85;5.62;;;;;;;11.16;100.00;138288.34;1646070;85;21668;-68
2022/10/19 06:02:23;;;;;;;7.53;4.97;;;;;;;11.18;100.00;149179.22;1636300;86;21529;-68
2022/10/19 06:04:50;;;;;;;8.63;6.20;;;;;;;11.25;100.00;150481.78;1648457;85;21085;-69
2022/10/19 06:07:17;;;;;;;7.35;5.67;;;;;;;11.32;100.00;150498.66;1642130;85;21521;-67
2022/10/19 06:09:44;;;;;;;10.78;6.87;;;;;;;11.40;100.00;150519.47;1638349;85;21115;-62
2022/10/19 06:12:11;;;;;;;10.15;6.65;;;;;;;11.50;100.00;150542.81;1633763;86;21190;-63
2022/10/19 06:14:39;;;;;;;10.48;6.55;;;;;;;11.58;100.00;150563.58;1612263;87;22190;-63
2022/10/19 06:17:06;;;;;;;8.50;5.20;;;;;;;11.64;100.00;150579.20;1645687;84;21083;-64
2022/10/19 06:19:33;;;;;;;10.35;5.33;;;;;;;11.70;100.00;150594.78;1644522;85;21560;-63
2022/10/19 06:22:00;;;;;;;7.47;5.58;;;;;;;11.77;100.00;150610.34;1644059;85;21024;-63
2022/10/19 06:24:27;;;;;;;10.72;4.72;;;;;;;11.84;100.00;150628.56;1637126;85;21137;-62
2022/10/19 06:26:55;;;;;;;8.98;5.08;;;;;;;11.89;100.00;150641.53;1638896;86;21095;-68
2022/10/19 06:29:22;;;;;;;8.43;4.90;;;;;;;11.96;100.00;150659.70;1642572;84;21107;-67
2022/10/19 06:31:49;;;;;;;7.47;4.70;;;;;;;12.10;100.00;150693.55;1647135;85;21138;-67
2022/10/19 06:34:16;;;;;;;8.80;4.45;;;;;;;12.25;100.00;150732.50;1640328;85;21059;-68
2022/10/19 06:36:43;;;;;;;7.58;4.45;;;;;;;12.36;100.00;150758.50;1650254;86;21039;-69
2022/10/19 06:39:11;;;;;;;7.15;4.60;;;;;;;12.45;100.00;150781.88;1591716;87;39451;-68
2022/10/19 06:41:37;;;;;;;8.65;4.42;;;;;;;12.54;100.00;150805.28;1649274;86;21144;-67
2022/10/19 06:44:15;;;;;;;7.95;4.70;;;;;;;12.66;100.00;150833.84;1619646;86;21096;-67
2022/10/19 06:46:45;;;;;;;7.78;4.80;;;;;;;12.75;100.00;150857.28;1653375;85;21459;-68
2022/10/19 06:49:12;;;;;;;6.95;4.62;;;;;;;12.81;100.00;150872.86;1652452;84;21696;-67
2022/10/19 06:51:40;;;;;;;5.70;4.12;;;;;;;12.82;100.00;150875.45;1634589;85;21245;-67
2022/10/19 06:54:07;;;;;;;5.10;4.03;;;;;;;12.85;100.00;150883.25;1647127;85;21051;-69
2022/10/19 06:56:34;;;;;;;11.18;3.80;;;;;;;12.95;100.00;150906.67;1643387;85;21017;-69
2022/10/19 06:59:01;;;;;;;7.00;3.80;;;;;;;13.08;100.00;150940.44;1637378;85;21135;-69
2022/10/19 07:01:28;;;;;;;7.05;3.90;;;;;;;13.23;100.00;150978.14;1652932;85;21578;-68
2022/10/19 07:03:55;;;;;;;10.23;4.35;;;;;;;13.38;100.00;151015.89;1655557;86;21228;-67
2022/10/19 07:06:22;;;;;;;13.98;4.35;;;;;;;13.52;100.00;151049.72;1622975;87;21136;-69
2022/10/19 07:08:49;;;;;;;11.08;4.50;;;;;;;13.65;100.00;151083.55;1661500;85;20996;-68
2022/10/19 07:11:19;;;;;;;8.25;4.62;;;;;;;13.77;100.00;151112.13;1654360;85;21068;-69
2022/10/19 07:13:46;;;;;;;10.28;4.03;;;;;;;13.82;99.97;151126.45;1646832;85;21043;-69
2022/10/19 07:16:14;;;;;;;12.65;4.00;;;;;;;13.92;99.28;151151.17;1653667;86;21156;-69
2022/10/19 07:18:41;;;;;;;5.05;2.90;;;;;;;14.02;98.21;151177.16;1682139;84;21072;-69
2022/10/19 07:21:11;;;;;;;5.22;2.75;;;;;;;14.13;96.10;151203.20;1683153;84;21178;-67
2022/10/19 07:23:39;;;;;;;6.22;3.85;;;;;;;14.20;94.59;151220.13;1672650;83;21087;-68
2022/10/19 07:26:19;;;;;;;13.05;6.90;;;;;;;14.30;93.64;151246.13;1675883;83;21127;-69
2022/10/19 07:28:47;;;;;;;10.50;4.50;;;;;;;14.37;91.71;151263.05;1674003;84;22010;-67
2022/10/19 07:31:17;;;;;;;12.98;3.40;;;;;;;14.43;91.33;151279.97;1677352;84;21096;-68
2022/10/19 07:33:43;;;;;;;5.47;2.90;;;;;;;14.52;91.06;151302.11;1675430;84;21071;-67
2022/10/19 07:36:12;;;;;;;10.60;2.92;;;;;;;14.61;89.83;151325.50;1680627;84;21091;-68
2022/10/19 07:38:39;;;;;;;9.30;2.50;;;;;;;14.70;89.05;151346.31;1679911;84;21091;-69
2022/10/19 07:41:15;;;;;;;4.83;2.85;;;;;;;14.78;88.33;151365.89;1685237;84;21244;-67
2022/10/19 07:43:44;;;;;;;5.33;2.70;;;;;;;14.85;86.86;151384.14;1687131;84;21070;-63
2022/10/19 07:46:14;;;;;;;4.47;2.70;;;;;;;14.92;86.21;151402.34;1685708;84;21147;-64
2022/10/19 07:48:41;;;;;;;23.73;3.33;;;;;;;15.00;86.07;151421.88;1682932;84;21178;-62
2022/10/19 07:51:09;;;;;;;8.20;2.90;;;;;;;15.10;84.62;151447.91;1687378;83;21069;-63
2022/10/19 07:53:52;;;;;;;6.72;3.33;;;;;;;15.18;83.55;151468.75;1655560;84;21780;-62
2022/10/19 07:56:28;;;;;;;10.25;3.50;;;;;;;15.26;82.99;151486.97;1670148;84;21098;-64
2022/10/19 07:58:56;;;;;;;6.75;3.60;;;;;;;15.36;82.02;151511.72;1672661;83;21047;-64
2022/10/19 08:01:27;;;;;;;4.22;2.98;;;;;;;15.39;80.91;151519.52;1673826;83;21087;-64
2022/10/19 08:03:55;;;;;;;10.90;3.33;;;;;;;15.44;80.22;151533.84;1666682;84;21074;-64
2022/10/19 08:06:23;;;;;;;7.65;3.10;;;;;;;15.47;79.65;151541.66;1685576;84;21812;-63
2022/10/19 08:08:51;;;;;;;7.53;3.50;;;;;;;15.53;78.87;151554.66;1673202;84;21443;-63
2022/10/19 08:11:25;;;;;;;9.58;3.55;;;;;;;15.57;77.67;151566.41;1686198;84;21087;-64
2022/10/19 08:13:52;;;;;;;5.10;2.80;;;;;;;15.63;76.76;151580.73;1685311;83;21078;-64
2022/10/19 08:16:31;;;;;;;4.97;3.22;;;;;;;15.68;75.76;151593.75;1676983;84;21107;-64
2022/10/19 08:19:02;;;;;;;14.83;3.55;;;;;;;15.70;74.32;151597.67;1663755;84;21995;-64
2022/10/19 08:21:29;;;;;;;6.78;3.00;;;;;;;15.70;73.62;151598.95;1670109;84;21390;-64
2022/10/19 08:24:08;;;;;;;9.98;3.20;;;;;;;15.73;72.77;151606.77;1655246;84;21066;-64
2022/10/19 08:26:40;;;;;;;7.83;3.40;;;;;;;15.73;71.93;151606.77;1637585;85;21521;-64
2022/10/19 08:29:13;;;;;;;7.40;3.30;;;;;;;15.79;71.25;151619.78;1691297;84;21051;-63
2022/10/19 08:31:42;;;;;;;6.40;3.90;;;;;;;15.83;70.60;151631.52;1631696;86;21537;-68
2022/10/19 08:34:12;;;;;;;5.92;3.80;;;;;;;15.86;70.14;151638.05;1680070;84;21095;-68
2022/10/19 08:36:39;;;;;;;8.55;3.75;;;;;;;15.88;69.16;151644.58;1644165;86;21092;-68
2022/10/19 08:39:08;;;;;;;9.50;4.00;;;;;;;15.90;69.28;151648.50;1677440;84;21040;-66
2022/10/19 08:42:00;;;;;;;9.30;4.05;;;;;;;15.93;69.17;151656.31;1678458;84;21067;-67
2022/10/19 08:44:45;;;;;;;4.95;3.80;;;;;;;15.92;68.35;151653.70;1676855;84;21285;-67
2022/10/19 08:47:33;;;;;;;9.63;4.27;;;;;;;15.95;68.34;151661.52;1639740;86;21039;-66
2022/10/19 08:50:00;;;;;;;6.08;3.70;;;;;;;16.00;68.14;151674.53;1661213;84;21077;-67
2022/10/19 08:52:33;;;;;;;5.87;3.55;;;;;;;16.06;67.61;151687.59;1670817;84;21057;-66
2022/10/19 08:55:05;;;;;;;8.70;3.75;;;;;;;16.08;67.33;151692.81;1656716;84;21594;-66
2022/10/19 08:57:52;;;;;;;6.42;3.83;;;;;;;16.11;67.47;151700.61;1677286;83;21214;-66
2022/10/19 09:00:46;;;;;;;7.10;3.50;;;;;;;16.17;67.09;151716.22;1634179;85;21116;-67
2022/10/19 09:03:36;;;;;;;7.55;4.03;;;;;;;16.25;66.88;151737.11;1673524;84;21059;-68
2022/10/19 09:06:21;;;;;;;9.73;3.87;;;;;;;16.31;66.43;151752.72;1671779;84;21074;-68
2022/10/19 09:08:46;;;;;;;7.85;3.98;;;;;;;16.41;66.15;151776.16;1638850;85;21113;-64
2022/10/19 09:11:13;;;;;;;5.47;4.08;;;;;;;16.49;66.01;151795.72;1668713;84;21289;-64
2022/10/19 09:13:45;;;;;;;8.20;4.17;;;;;;;16.52;65.15;151804.84;1658000;84;21703;-63
2022/10/19 09:16:14;;;;;;;9.08;3.75;;;;;;;16.55;64.69;151812.66;1669942;84;21593;-63
2022/10/19 09:18:42;;;;;;;6.78;4.12;;;;;;;16.58;64.41;151819.19;1686344;84;21055;-63
2022/10/19 09:21:24;;;;;;;8.65;4.15;;;;;;;16.61;64.15;151828.28;1680023;83;21166;-68
2022/10/19 09:23:57;;;;;;;7.75;4.97;;;;;;;16.66;63.99;151838.70;1687702;83;21252;-67
2022/10/19 09:26:33;;;;;;;7.95;4.47;;;;;;;16.70;63.95;151849.17;1683072;83;21005;-67
2022/10/19 09:29:05;;;;;;;7.60;4.78;;;;;;;16.69;63.97;151846.52;1686802;84;21396;-67
2022/10/19 09:31:37;;;;;;;7.10;4.08;;;;;;;16.71;64.34;151851.77;1683769;84;21100;-67
2022/10/19 09:34:14;;;;;;;12.30;4.33;;;;;;;16.73;64.00;151856.98;1677198;84;21446;-67
2022/10/19 09:36:45;;;;;;;7.83;3.92;;;;;;;16.73;63.97;151858.25;1688111;83;21257;-67
2022/10/19 09:39:12;;;;;;;6.72;4.08;;;;;;;16.75;63.70;151863.47;1680982;83;21077;-67
2022/10/19 09:41:50;;;;;;;9.60;4.12;;;;;;;16.78;63.58;151870.00;1672927;83;21106;-67
2022/10/19 09:44:17;;;;;;;9.60;4.28;;;;;;;16.82;63.56;151880.42;1687832;84;21067;-67
2022/10/19 09:46:51;;;;;;;8.25;4.78;;;;;;;16.90;63.53;151901.25;1670708;84;21317;-67
2022/10/19 09:49:18;;;;;;;10.98;3.80;;;;;;;16.95;63.08;151911.72;1689441;84;21788;-67
2022/10/19 09:51:51;;;;;;;9.03;3.95;;;;;;;16.97;63.39;151916.94;1695718;83;21492;-69
2022/10/19 09:54:32;;;;;;;7.65;3.60;;;;;;;17.02;63.40;151930.00;1692615;84;21065;-67
2022/10/19 09:57:02;;;;;;;10.78;4.33;;;;;;;17.09;63.17;151948.23;1671972;84;21072;-68
2022/10/19 09:59:33;;;;;;;6.62;3.40;;;;;;;17.14;62.42;151961.31;1685054;84;21049;-70
2022/10/19 10:02:17;;;;;;;8.83;3.50;;;;;;;17.16;62.12;151965.19;1643674;85;21058;-67
2022/10/19 10:04:49;;;;;;;11.35;3.80;;;;;;;17.17;61.63;151969.13;1675216;83;21076;-66
2022/10/19 10:07:18;;;;;;;7.05;4.05;;;;;;;17.04;61.40;151935.22;1651209;85;21154;-67
2022/10/19 10:09:45;;;;;;;9.55;3.95;;;;;;;16.98;61.84;151920.86;1651151;83;21146;-68
2022/10/19 10:12:14;;;;;;;10.20;3.90;;;;;;;16.99;61.95;151923.47;1656926;83;21099;-69
2022/10/19 10:14:41;;;;;;;13.50;4.60;;;;;;;17.01;61.65;151928.67;1674468;83;21454;-68
2022/10/19 10:17:17;;;;;;;11.25;4.10;;;;;;;17.06;61.55;151940.42;1639507;84;21145;-69
2022/10/19 10:20:03;;;;;;;10.82;4.53;;;;;;;17.12;61.32;151956.05;1680168;84;21079;-69
2022/10/19 10:22:35;;;;;;;9.88;4.62;;;;;;;17.16;61.26;151966.52;1671560;84;21094;-69
2022/10/19 10:25:11;;;;;;;7.08;4.08;;;;;;;17.20;61.51;151975.61;1674421;83;21162;-69
2022/10/19 10:27:39;;;;;;;7.67;4.72;;;;;;;17.27;61.63;151992.56;1667069;85;21155;-68
2022/10/19 10:30:13;;;;;;;10.10;3.90;;;;;;;17.33;61.13;152008.20;1667130;85;21042;-70
2022/10/19 10:32:51;;;;;;;15.30;4.87;;;;;;;17.41;60.75;152029.09;1678765;84;21345;-69
2022/10/19 10:35:35;;;;;;;8.33;3.85;;;;;;;17.50;60.55;152049.94;1664132;84;21641;-65
2022/10/19 10:38:33;;;;;;;;;;;;;;;;;;;;;
2022/10/19 10:41:16;;;;;;;8.43;4.50;;;;;;;17.58;58.95;152072.11;1663952;84;21138;-69
2022/10/19 10:43:58;;;;;;;13.62;5.03;;;;;;;17.56;58.96;152065.56;1683171;84;21098;-65
2022/10/19 10:46:28;;;;;;;6.62;4.08;;;;;;;17.56;57.99;152066.91;1678532;84;21103;-64
2022/10/19 10:49:00;;;;;;;10.60;4.40;;;;;;;17.56;58.22;152065.56;1681671;84;21499;-63
2022/10/19 10:51:47;;;;;;;7.97;4.75;;;;;;;17.60;58.23;152076.05;1681418;84;21072;-68
2022/10/19 10:54:26;;;;;;;10.78;4.28;;;;;;;17.66;58.04;152090.34;1672522;84;21335;-68
2022/10/19 10:57:17;;;;;;;8.63;4.12;;;;;;;17.68;58.12;152096.89;1674779;84;20968;-69
2022/10/19 11:00:11;;;;;;;14.38;4.20;;;;;;;17.73;58.44;152108.64;1674325;83;21075;-69
2022/10/19 11:03:11;;;;;;;9.65;4.50;;;;;;;17.82;58.35;152132.09;1671903;84;21123;-63
2022/10/19 11:05:46;;;;;;;9.95;4.60;;;;;;;17.90;58.07;152153.00;1664963;84;21078;-64
2022/10/19 11:08:30;;;;;;;15.45;6.08;;;;;;;17.96;57.29;152167.31;1673245;84;21255;-64
2022/10/19 11:11:02;;;;;;;10.32;5.03;;;;;;;18.01;56.28;152179.06;1662594;84;21568;-64
2022/10/19 11:13:42;;;;;;;11.15;5.50;;;;;;;18.00;55.75;152177.73;1672398;84;21061;-69
2022/10/19 11:16:16;;;;;;;11.75;6.30;;;;;;;18.02;55.84;152183.03;1671524;84;21411;-68
2022/10/19 11:18:48;;;;;;;11.08;5.97;;;;;;;18.08;55.72;152197.36;1665528;84;23078;-68
2022/10/19 11:21:26;;;;;;;15.32;5.45;;;;;;;18.13;55.45;152210.44;1661290;84;21273;-67
2022/10/19 11:24:08;;;;;;;13.43;6.10;;;;;;;18.20;55.05;152227.36;1663946;84;21068;-68
2022/10/19 11:27:04;;;;;;;12.90;5.83;;;;;;;18.26;54.89;152243.03;1662006;84;21163;-68
2022/10/19 11:30:02;;;;;;;11.97;5.75;;;;;;;18.32;54.55;152257.36;1662195;83;21099;-68
2022/10/19 11:33:04;;;;;;;18.98;6.37;;;;;;;18.39;54.67;152274.33;1642576;85;21064;-68
2022/10/19 11:35:42;;;;;;;24.47;6.05;;;;;;;18.46;54.25;152292.62;1661585;84;21772;-68
2022/10/19 11:38:39;;;;;;;14.03;6.28;;;;;;;18.49;53.96;152300.44;1657759;84;21063;-69
2022/10/19 11:41:45;;;;;;;14.03;6.97;;;;;;;18.51;53.53;152305.66;1656885;84;21051;-68
2022/10/19 11:44:34;;;;;;;25.70;6.90;;;;;;;18.56;53.60;152317.38;1669753;84;21138;-70